Time;durP1;ratioP1;P1;durP2;ratioP2;P2;SDS_P1;SDS_P2;PMS_P1;PMS_P2;Temp;Humidity;BMP_temperature;BMP_pressure;BME280_temperature;BME280_humidity;BME280_pressure;Samples;Min_cycle;Max_cycle;Signal;HPM_P1;HPM_P2
2022/09/14 00:00:50;;;;;;;11.82;2.88;;;;;;;16.48;84.71;100761.88;4991502;28;20045;-86
2022/09/14 00:03:16;;;;;;;12.07;2.95;;;;;;;16.46;84.86;100757.56;5022736;28;20042;-85
2022/09/14 00:05:42;;;;;;;5.93;2.70;;;;;;;16.43;84.86;100763.38;4991506;28;20046;-85
2022/09/14 00:08:09;;;;;;;6.18;2.83;;;;;;;16.41;84.65;100752.50;5001753;28;20045;-85
2022/09/14 00:10:43;;;;;;;6.18;3.00;;;;;;;16.39;84.88;100760.06;5006013;28;20474;-86
2022/09/14 00:13:10;;;;;;;7.15;3.47;;;;;;;16.39;84.95;100750.94;4990850;28;20093;-86
2022/09/14 00:15:40;;;;;;;7.93;3.40;;;;;;;16.33;85.76;100749.69;5006340;28;21188;-86
2022/09/14 00:18:08;;;;;;;5.60;3.00;;;;;;;16.26;86.41;100734.81;4989830;28;20048;-86
2022/09/14 00:20:34;;;;;;;8.73;3.22;;;;;;;16.18;86.21;100732.84;4993426;28;20026;-86
2022/09/14 00:23:00;;;;;;;6.80;3.03;;;;;;;16.16;86.49;100731.25;5003212;28;20499;-86
2022/09/14 00:25:26;;;;;;;9.35;3.20;;;;;;;16.15;86.15;100735.88;5008898;28;20125;-86
2022/09/14 00:27:52;;;;;;;9.05;3.58;;;;;;;16.12;86.57;100733.41;5004526;28;20116;-86
2022/09/14 00:30:18;;;;;;;6.03;3.08;;;;;;;16.05;86.10;100738.66;4996448;28;20549;-86
2022/09/14 00:32:44;;;;;;;8.88;2.78;;;;;;;16.04;86.19;100733.28;4988877;28;20034;-86
2022/09/14 00:35:09;;;;;;;5.22;2.83;;;;;;;15.99;85.70;100730.13;4989839;28;20029;-86
2022/09/14 00:37:35;;;;;;;4.75;2.97;;;;;;;16.03;86.06;100739.81;5000989;28;20040;-86
2022/09/14 00:40:03;;;;;;;7.95;3.25;;;;;;;16.01;86.45;100728.13;5007736;28;20056;-86
2022/09/14 00:42:28;;;;;;;8.32;2.92;;;;;;;15.98;86.60;100717.44;4989348;28;20060;-86
2022/09/14 00:44:59;;;;;;;5.82;3.20;;;;;;;15.99;86.27;100720.06;5008798;28;20473;-86
2022/09/14 00:47:25;;;;;;;4.50;3.03;;;;;;;15.93;86.58;100711.53;5004988;28;20046;-86
2022/09/14 00:49:51;;;;;;;7.60;3.42;;;;;;;15.82;86.66;100710.69;5007739;28;20032;-85
2022/09/14 00:52:24;;;;;;;9.57;3.60;;;;;;;15.77;87.06;100710.28;5006947;28;20045;-87
2022/09/14 00:55:06;;;;;;;6.88;3.03;;;;;;;15.74;86.55;100702.34;5007137;28;20037;-86
2022/09/14 00:57:48;;;;;;;8.10;3.03;;;;;;;15.75;85.97;100698.56;5002859;28;20138;-86
2022/09/14 01:00:22;;;;;;;14.02;3.10;;;;;;;15.77;86.69;100696.56;5007472;28;20029;-86
2022/09/14 01:02:47;;;;;;;5.18;2.88;;;;;;;15.72;87.04;100687.91;5006587;28;20038;-86
2022/09/14 01:05:13;;;;;;;5.45;2.55;;;;;;;15.62;86.61;100683.41;5002878;28;20057;-86
2022/09/14 01:07:53;;;;;;;8.38;2.35;;;;;;;15.53;86.77;100680.56;5005508;28;20036;-86
2022/09/14 01:10:37;;;;;;;7.32;2.65;;;;;;;15.60;87.23;100680.84;5005346;28;20390;-86
2022/09/14 01:13:27;;;;;;;7.85;3.00;;;;;;;15.51;87.05;100679.84;5003921;28;20041;-86
2022/09/14 01:16:11;;;;;;;8.20;2.92;;;;;;;15.42;87.31;100671.63;5006300;28;20072;-86
2022/09/14 01:18:44;;;;;;;9.18;2.75;;;;;;;15.43;87.12;100679.69;5037303;28;20065;-86
2022/09/14 01:21:18;;;;;;;7.40;3.22;;;;;;;15.39;87.40;100664.56;5007241;28;20026;-86
2022/09/14 01:23:53;;;;;;;9.40;2.80;;;;;;;15.38;87.67;100664.69;5005167;28;20564;-86
2022/09/14 01:26:37;;;;;;;6.97;2.53;;;;;;;15.38;87.71;100670.19;5003763;28;20029;-85
2022/09/14 01:29:14;;;;;;;5.15;2.65;;;;;;;15.32;87.15;100666.16;5005324;28;20029;-86
2022/09/14 01:32:26;;;;;;;9.45;2.83;;;;;;;15.43;86.87;100676.09;4986711;28;20082;-86
2022/09/14 01:35:02;;;;;;;9.77;2.90;;;;;;;15.42;86.55;100682.59;4986925;28;20057;-86
2022/09/14 01:37:41;;;;;;;7.13;3.25;;;;;;;15.35;86.45;100687.81;5004566;28;20178;-85
2022/09/14 01:40:20;;;;;;;5.47;3.08;;;;;;;15.32;87.09;100682.59;4989067;28;20113;-85
2022/09/14 01:42:50;;;;;;;7.47;2.90;;;;;;;15.30;87.96;100673.69;4988980;28;20282;-86
2022/09/14 01:45:18;;;;;;;8.20;2.90;;;;;;;15.25;87.97;100668.63;4990011;28;20425;-85
2022/09/14 01:47:52;;;;;;;8.85;2.63;;;;;;;15.28;88.31;100671.06;4991224;28;20125;-85
2022/09/14 01:50:23;;;;;;;9.27;2.85;;;;;;;15.24;87.79;100669.63;5005576;28;20062;-85
2022/09/14 01:52:59;;;;;;;7.10;2.80;;;;;;;15.22;87.54;100654.34;4999485;28;20038;-85
2022/09/14 01:55:30;;;;;;;7.10;2.80;;;;;;;15.25;88.15;100659.56;5006778;28;20108;-85
2022/09/14 01:58:03;;;;;;;6.90;2.87;;;;;;;15.25;87.31;100656.81;4993197;28;20034;-85
2022/09/14 02:00:30;;;;;;;8.02;2.75;;;;;;;15.25;87.42;100654.06;4997729;28;20050;-86
2022/09/14 02:03:13;;;;;;;12.27;2.65;;;;;;;15.29;87.55;100659.13;4999792;28;20033;-85
2022/09/14 02:05:52;;;;;;;11.73;2.72;;;;;;;15.22;87.67;100654.34;4991015;28;20581;-86
2022/09/14 02:08:18;;;;;;;8.70;2.85;;;;;;;15.23;87.68;100650.59;5005229;28;20068;-85
2022/09/14 02:10:43;;;;;;;8.68;3.03;;;;;;;15.23;87.32;100645.97;4989137;28;20053;-86
2022/09/14 02:13:09;;;;;;;6.75;2.33;;;;;;;15.24;87.50;100652.31;4988623;28;20026;-86
2022/09/14 02:15:36;;;;;;;6.65;2.55;;;;;;;15.27;87.75;100661.13;5003832;28;20067;-86
2022/09/14 02:18:02;;;;;;;7.10;2.63;;;;;;;15.29;87.29;100660.97;4997674;28;20435;-86
2022/09/14 02:20:44;;;;;;;8.77;2.58;;;;;;;15.28;86.86;100659.25;4989205;28;20042;-85
2022/09/14 02:23:09;;;;;;;7.20;3.13;;;;;;;15.26;87.15;100664.88;5005272;28;20029;-86
2022/09/14 02:25:35;;;;;;;9.77;3.17;;;;;;;15.25;87.09;100659.56;4990100;28;20046;-86
2022/09/14 02:28:03;;;;;;;6.97;2.63;;;;;;;15.23;87.07;100654.19;4992015;28;20061;-86
2022/09/14 02:30:47;;;;;;;5.13;2.40;;;;;;;15.25;87.15;100654.06;5008214;28;20033;-86
2022/09/14 02:33:26;;;;;;;8.30;2.55;;;;;;;15.22;86.68;100657.09;5001831;28;20113;-86
2022/09/14 02:35:54;;;;;;;7.78;2.90;;;;;;;15.17;85.94;100662.16;5031974;28;20042;-86
2022/09/14 02:38:39;;;;;;;7.72;2.78;;;;;;;15.11;86.33;100660.84;4988663;28;20018;-86
2022/09/14 02:41:23;;;;;;;9.27;2.50;;;;;;;15.05;86.02;100655.94;5015215;28;20452;-86
2022/09/14 02:44:01;;;;;;;12.13;3.13;;;;;;;15.07;86.30;100662.16;4987991;28;20107;-86
2022/09/14 02:46:33;;;;;;;10.60;2.42;;;;;;;15.04;86.66;100663.28;4970667;28;20038;-86
2022/09/14 02:49:37;;;;;;;7.07;2.65;;;;;;;15.05;86.32;100661.41;5002764;28;20034;-86
2022/09/14 02:52:35;;;;;;;9.68;2.97;;;;;;;14.97;87.10;100655.81;5001002;28;20141;-86
2022/09/14 02:55:08;;;;;;;5.40;3.05;;;;;;;14.96;86.93;100656.78;4995595;28;20050;-86
2022/09/14 02:58:07;;;;;;;6.88;2.78;;;;;;;14.98;86.58;100652.91;4992580;28;20042;-86
2022/09/14 03:00:36;;;;;;;5.68;3.10;;;;;;;14.98;87.33;100636.47;4988527;28;20038;-85
2022/09/14 03:03:04;;;;;;;7.22;3.33;;;;;;;14.98;87.27;100641.09;4987985;28;20397;-86
2022/09/14 03:05:31;;;;;;;8.82;2.50;;;;;;;15.01;87.89;100643.53;5005126;28;20080;-86
2022/09/14 03:07:58;;;;;;;9.15;2.92;;;;;;;15.03;87.82;100641.53;5003235;28;20038;-85
2022/09/14 03:10:23;;;;;;;6.65;2.85;;;;;;;15.03;87.80;100641.53;4987601;28;20049;-86
2022/09/14 03:12:48;;;;;;;5.50;2.67;;;;;;;15.06;87.79;100641.22;4990296;28;20409;-85
2022/09/14 03:15:14;;;;;;;7.15;3.15;;;;;;;15.01;88.04;100628.00;4990381;28;20073;-85
2022/09/14 03:17:44;;;;;;;8.57;2.67;;;;;;;15.01;88.00;100627.09;4992785;28;20128;-85
2022/09/14 03:20:10;;;;;;;5.60;2.45;;;;;;;14.99;87.42;100626.38;5011986;28;20477;-86
2022/09/14 03:22:35;;;;;;;12.05;3.28;;;;;;;14.96;87.67;100629.41;5010384;28;20044;-85
2022/09/14 03:25:01;;;;;;;7.32;2.90;;;;;;;14.96;87.51;100630.25;5009127;28;20560;-85
2022/09/14 03:27:26;;;;;;;6.82;2.72;;;;;;;14.96;87.72;100622.03;4987572;28;20520;-85
2022/09/14 03:29:51;;;;;;;11.38;2.60;;;;;;;14.90;87.59;100621.78;4998815;28;20034;-85
2022/09/14 03:32:17;;;;;;;6.07;2.80;;;;;;;14.88;87.87;100629.28;4998431;28;20390;-85
2022/09/14 03:34:42;;;;;;;12.25;2.97;;;;;;;14.78;87.78;100616.47;4991355;28;20046;-85
2022/09/14 03:37:07;;;;;;;7.07;2.50;;;;;;;14.77;88.80;100619.31;4991593;28;20037;-85
2022/09/14 03:39:33;;;;;;;12.70;2.67;;;;;;;14.73;88.90;100605.03;5005258;28;20029;-85
2022/09/14 03:41:58;;;;;;;9.38;2.47;;;;;;;14.74;88.19;100608.66;4988392;28;20038;-85
2022/09/14 03:44:23;;;;;;;8.13;2.72;;;;;;;14.71;88.22;100592.53;4997301;28;20124;-84
2022/09/14 03:46:49;;;;;;;6.25;2.58;;;;;;;14.71;88.50;100598.00;5002667;28;20026;-85
2022/09/14 03:49:14;;;;;;;8.38;2.67;;;;;;;14.70;88.71;100605.34;5000148;28;20101;-85
2022/09/14 03:51:40;;;;;;;4.40;2.90;;;;;;;14.66;88.78;100595.69;5010230;28;20065;-85
2022/09/14 03:54:05;;;;;;;8.18;2.70;;;;;;;14.68;88.71;100607.34;5007854;28;20480;-85
2022/09/14 03:56:30;;;;;;;7.38;2.28;;;;;;;14.68;88.34;100592.78;5005411;28;20390;-85
2022/09/14 03:58:56;;;;;;;4.57;2.00;;;;;;;14.71;88.77;100603.47;4989765;28;20041;-85
2022/09/14 04:01:22;;;;;;;7.22;2.10;;;;;;;14.64;88.59;100600.47;5005911;28;20073;-85
2022/09/14 04:03:48;;;;;;;5.38;2.13;;;;;;;14.66;88.56;100600.31;4994598;28;20080;-84
2022/09/14 04:06:15;;;;;;;7.97;2.15;;;;;;;14.59;87.66;100582.69;4990779;28;20069;-85
2022/09/14 04:08:42;;;;;;;4.85;2.05;;;;;;;14.57;88.85;100585.59;5027204;28;20427;-85
2022/09/14 04:11:22;;;;;;;6.63;1.95;;;;;;;14.61;88.65;100594.41;5005829;28;20034;-85
2022/09/14 04:13:48;;;;;;;7.05;2.10;;;;;;;14.54;88.69;100577.66;4990752;28;22081;-85
2022/09/14 04:16:15;;;;;;;10.07;1.90;;;;;;;14.54;88.55;100592.22;4989961;28;20121;-85
2022/09/14 04:18:40;;;;;;;4.68;1.83;;;;;;;14.52;88.62;100580.56;5004673;28;20081;-85
2022/09/14 04:21:09;;;;;;;7.90;1.90;;;;;;;14.54;88.34;100585.88;4996889;28;20069;-85
2022/09/14 04:23:35;;;;;;;3.47;1.80;;;;;;;14.51;88.74;100581.56;5006040;28;20057;-85
2022/09/14 04:26:00;;;;;;;7.97;1.90;;;;;;;14.51;89.13;100575.22;4972866;28;20058;-85
2022/09/14 04:28:26;;;;;;;10.95;1.83;;;;;;;14.48;88.96;100572.75;5011926;28;20030;-85
2022/09/14 04:31:00;;;;;;;6.50;1.67;;;;;;;14.45;88.67;100567.53;5008877;28;20117;-85
2022/09/14 04:33:29;;;;;;;4.85;1.77;;;;;;;14.40;88.87;100570.69;5004427;28;20092;-85
2022/09/14 04:36:07;;;;;;;5.22;1.60;;;;;;;14.35;88.95;100569.41;4998060;28;20415;-85
2022/09/14 04:38:34;;;;;;;5.68;2.22;;;;;;;14.39;88.74;100573.59;5004641;28;20034;-85
2022/09/14 04:41:04;;;;;;;5.25;1.92;;;;;;;14.36;88.89;100563.81;4989033;28;20117;-85
2022/09/14 04:43:30;;;;;;;6.68;1.95;;;;;;;14.36;88.82;100568.38;4990051;28;20077;-85
2022/09/14 04:46:02;;;;;;;4.80;1.80;;;;;;;14.37;88.82;100567.41;4997111;28;20053;-85
2022/09/14 04:48:32;;;;;;;6.85;1.92;;;;;;;14.39;88.39;100568.13;4989925;28;20038;-84
2022/09/14 04:51:21;;;;;;;7.60;2.25;;;;;;;14.39;88.66;100566.25;4990882;28;20481;-85
2022/09/14 04:53:49;;;;;;;7.00;2.05;;;;;;;14.32;89.15;100556.88;4997387;28;20034;-85
2022/09/14 04:56:16;;;;;;;9.77;2.25;;;;;;;14.35;88.97;100553.84;5006091;28;20116;-85
2022/09/14 04:58:46;;;;;;;4.63;1.98;;;;;;;14.32;89.23;100545.06;4989476;28;20025;-85
2022/09/14 05:01:15;;;;;;;10.80;1.95;;;;;;;14.38;89.33;100545.34;4989528;28;20459;-86
2022/09/14 05:03:41;;;;;;;8.70;2.00;;;;;;;14.39;89.50;100540.75;4988193;28;20108;-85
2022/09/14 05:06:16;;;;;;;6.63;2.47;;;;;;;14.37;89.63;100538.16;5010399;28;20049;-86
2022/09/14 05:08:42;;;;;;;4.10;2.00;;;;;;;14.30;89.43;100532.38;5005035;28;20180;-86
2022/09/14 05:11:10;;;;;;;11.13;2.10;;;;;;;14.30;88.54;100526.03;5005608;28;20436;-86
2022/09/14 05:13:36;;;;;;;7.82;1.75;;;;;;;14.26;88.59;100533.66;5006019;28;20094;-86
2022/09/14 05:16:07;;;;;;;5.25;1.85;;;;;;;14.21;89.28;100533.22;5004673;28;20473;-86
2022/09/14 05:18:32;;;;;;;5.47;2.17;;;;;;;14.24;89.00;100532.97;5002736;28;20074;-86
2022/09/14 05:21:03;;;;;;;7.57;1.92;;;;;;;14.18;89.51;100529.94;4990918;28;20061;-85
2022/09/14 05:23:29;;;;;;;7.55;2.08;;;;;;;14.25;89.06;100536.56;5001405;28;21475;-85
2022/09/14 05:25:55;;;;;;;6.68;2.05;;;;;;;14.31;89.24;100552.41;5008953;28;20026;-86
2022/09/14 05:28:20;;;;;;;8.63;2.00;;;;;;;14.29;89.19;100544.34;5004500;28;20563;-85
2022/09/14 05:30:46;;;;;;;4.95;2.10;;;;;;;14.38;89.88;100558.19;5007913;28;20476;-85
2022/09/14 05:33:11;;;;;;;7.85;2.60;;;;;;;14.39;89.04;100554.44;4993645;28;20393;-86
2022/09/14 05:35:37;;;;;;;5.72;2.10;;;;;;;14.40;89.17;100550.69;4983488;28;20401;-86
2022/09/14 05:38:02;;;;;;;4.70;2.17;;;;;;;14.43;89.39;100554.00;4988322;28;20037;-85
2022/09/14 05:40:28;;;;;;;4.75;2.13;;;;;;;14.41;89.62;100557.88;5004970;28;20034;-86
2022/09/14 05:42:53;;;;;;;6.70;2.20;;;;;;;14.38;89.28;100553.56;5001066;28;20053;-85
2022/09/14 05:45:18;;;;;;;8.32;3.17;;;;;;;14.39;89.73;100558.03;4990162;28;20034;-85
2022/09/14 05:47:44;;;;;;;6.40;2.13;;;;;;;14.37;89.62;100554.59;5004811;28;20025;-85
2022/09/14 05:50:09;;;;;;;4.72;2.35;;;;;;;14.39;89.29;100559.91;5006879;28;20072;-85
2022/09/14 05:52:34;;;;;;;4.97;2.00;;;;;;;14.33;89.67;100555.00;5007017;28;20239;-85
2022/09/14 05:55:00;;;;;;;8.48;2.63;;;;;;;14.35;89.70;100562.06;4988128;28;20030;-85
2022/09/14 05:57:26;;;;;;;8.73;2.72;;;;;;;14.36;90.11;100554.69;5003010;28;20085;-85
2022/09/14 05:59:51;;;;;;;7.55;2.40;;;;;;;14.40;89.87;100557.00;5006110;28;20030;-85
2022/09/14 06:02:16;;;;;;;8.75;2.50;;;;;;;14.39;89.61;100558.03;5006845;28;20113;-84
2022/09/14 06:04:42;;;;;;;3.97;2.75;;;;;;;14.38;89.89;100564.50;5008941;28;20061;-85
2022/09/14 06:07:07;;;;;;;4.35;2.28;;;;;;;14.44;90.09;100568.53;5009600;28;20498;-84
2022/09/14 06:09:33;;;;;;;6.75;2.72;;;;;;;14.42;89.71;100567.84;5008079;28;20044;-84
2022/09/14 06:11:58;;;;;;;4.65;2.70;;;;;;;14.47;89.51;100579.22;5035913;28;20041;-86
2022/09/14 06:14:23;;;;;;;6.60;2.80;;;;;;;14.46;89.59;100572.88;5007612;28;20063;-85
2022/09/14 06:16:49;;;;;;;5.25;2.58;;;;;;;14.49;89.46;100574.50;5026959;28;20025;-85
2022/09/14 06:19:14;;;;;;;5.40;2.75;;;;;;;14.52;89.99;100572.34;5009895;28;20095;-85
2022/09/14 06:21:41;;;;;;;5.25;2.63;;;;;;;14.51;89.99;100573.34;5035868;28;20034;-86
2022/09/14 06:24:08;;;;;;;6.20;2.65;;;;;;;14.49;89.19;100578.09;5007482;28;20042;-85
2022/09/14 06:26:34;;;;;;;7.93;2.70;;;;;;;14.48;89.31;100570.88;5020773;28;20091;-86
2022/09/14 06:28:59;;;;;;;6.97;2.22;;;;;;;14.47;88.77;100573.75;5025191;28;20029;-86
2022/09/14 06:31:25;;;;;;;7.43;2.88;;;;;;;14.48;89.81;100575.50;4989737;28;20126;-85
2022/09/14 06:33:51;;;;;;;4.20;2.50;;;;;;;14.52;89.78;100580.56;5008960;28;20104;-86
2022/09/14 06:36:21;;;;;;;4.30;2.40;;;;;;;14.51;89.29;100570.63;5026116;28;20108;-86
2022/09/14 06:38:48;;;;;;;5.90;2.55;;;;;;;14.53;89.38;100567.72;4990998;28;20040;-86
2022/09/14 06:41:17;;;;;;;6.15;2.55;;;;;;;14.55;89.40;100563.00;5006337;28;20048;-86
2022/09/14 06:43:42;;;;;;;4.97;2.63;;;;;;;14.54;89.68;100564.84;4992553;28;20105;-86
2022/09/14 06:46:23;;;;;;;6.97;2.65;;;;;;;14.57;89.59;100550.00;4990078;28;20560;-86
2022/09/14 06:48:55;;;;;;;6.50;2.90;;;;;;;14.52;90.41;100538.63;5008852;28;20053;-86
2022/09/14 06:51:32;;;;;;;5.70;3.15;;;;;;;14.53;90.89;100535.72;4991082;28;20041;-86
2022/09/14 06:53:59;;;;;;;8.05;2.92;;;;;;;14.51;90.52;100545.97;4995942;28;20402;-85
2022/09/14 06:56:26;;;;;;;10.30;3.50;;;;;;;14.51;89.59;100547.84;5008317;28;20152;-86
2022/09/14 06:58:53;;;;;;;5.45;2.67;;;;;;;14.47;89.39;100551.84;5005719;28;20036;-85
2022/09/14 07:01:19;;;;;;;10.00;3.20;;;;;;;14.44;89.75;100544.78;5008926;28;20030;-86
2022/09/14 07:03:46;;;;;;;8.15;2.72;;;;;;;14.48;89.91;100550.88;5023883;28;20367;-85
2022/09/14 07:06:17;;;;;;;7.68;2.42;;;;;;;14.49;90.19;100545.25;5005708;28;20046;-85
2022/09/14 07:08:43;;;;;;;4.53;3.25;;;;;;;14.52;90.04;100533.16;5001895;28;20107;-85
2022/09/14 07:11:10;;;;;;;9.00;3.00;;;;;;;14.49;91.14;100536.16;5002432;28;20037;-86
2022/09/14 07:13:36;;;;;;;8.07;3.13;;;;;;;14.52;90.64;100535.88;4994020;28;20125;-86
2022/09/14 07:16:02;;;;;;;7.53;2.95;;;;;;;14.49;90.21;100533.44;4983273;28;20019;-85
2022/09/14 07:18:32;;;;;;;7.75;3.00;;;;;;;14.47;90.13;100528.06;4993540;28;20088;-85
2022/09/14 07:21:13;;;;;;;8.23;3.40;;;;;;;14.45;90.12;100523.75;4993045;28;20466;-85
2022/09/14 07:23:40;;;;;;;4.88;2.95;;;;;;;14.45;90.21;100524.59;4992558;28;20046;-86
2022/09/14 07:26:19;;;;;;;5.05;3.55;;;;;;;14.49;89.96;100533.44;5004946;28;20038;-85
2022/09/14 07:28:47;;;;;;;6.68;3.35;;;;;;;14.51;89.94;100528.69;4992719;28;20038;-86
2022/09/14 07:31:22;;;;;;;7.72;3.00;;;;;;;14.53;90.38;100533.00;4994960;28;20058;-86
2022/09/14 07:33:54;;;;;;;6.47;3.35;;;;;;;14.59;90.25;100530.69;5001780;28;20059;-86
2022/09/14 07:36:20;;;;;;;15.57;3.60;;;;;;;14.60;89.78;100537.91;5008187;28;20449;-86
2022/09/14 07:38:46;;;;;;;6.22;4.70;;;;;;;14.58;90.18;100529.81;5004096;28;20591;-86
2022/09/14 07:41:11;;;;;;;7.20;3.40;;;;;;;14.61;90.56;100532.28;5005287;28;20033;-86
2022/09/14 07:43:36;;;;;;;8.25;3.53;;;;;;;14.62;89.88;100528.53;5004531;28;20454;-86
2022/09/14 07:46:03;;;;;;;7.80;3.83;;;;;;;14.69;90.22;100529.69;5003239;28;20402;-86
2022/09/14 07:48:31;;;;;;;8.25;4.05;;;;;;;14.77;91.45;100534.41;5018683;28;20124;-86
2022/09/14 07:51:05;;;;;;;7.15;3.83;;;;;;;14.82;90.61;100533.97;5020095;28;20042;-85
2022/09/14 07:53:33;;;;;;;8.45;4.03;;;;;;;14.80;89.58;100529.53;5003563;28;20292;-86
2022/09/14 07:56:00;;;;;;;6.68;4.43;;;;;;;14.74;90.41;100534.72;4986668;28;20489;-85
2022/09/14 07:58:29;;;;;;;9.10;4.97;;;;;;;14.75;91.41;100526.38;5002064;28;20397;-86
2022/09/14 08:01:07;;;;;;;7.03;4.00;;;;;;;14.80;90.01;100528.66;4989768;28;20022;-86
2022/09/14 08:03:35;;;;;;;8.75;4.10;;;;;;;14.83;90.09;100530.22;5002339;28;20037;-85
2022/09/14 08:06:15;;;;;;;11.10;3.83;;;;;;;14.87;89.82;100528.94;5002666;28;20486;-86
2022/09/14 08:08:43;;;;;;;7.35;3.97;;;;;;;14.89;89.75;100525.03;5001860;28;20092;-86
2022/09/14 08:11:18;;;;;;;5.45;4.38;;;;;;;14.95;89.66;100523.59;5002925;28;20042;-86
2022/09/14 08:13:48;;;;;;;10.95;4.68;;;;;;;14.97;89.54;100527.91;4995671;28;20046;-86
2022/09/14 08:16:13;;;;;;;8.65;4.45;;;;;;;14.98;89.70;100524.16;5005105;28;20073;-86
2022/09/14 08:18:39;;;;;;;9.80;4.47;;;;;;;15.04;89.51;100523.56;5006115;28;20092;-85
2022/09/14 08:21:11;;;;;;;8.80;4.55;;;;;;;15.12;89.23;100525.56;5008952;28;20018;-86
2022/09/14 08:23:37;;;;;;;9.73;4.82;;;;;;;15.11;88.97;100522.97;5004142;28;20472;-85
2022/09/14 08:26:04;;;;;;;7.35;5.05;;;;;;;15.18;90.35;100518.63;5005562;28;20034;-86
2022/09/14 08:28:29;;;;;;;7.18;5.10;;;;;;;15.17;89.61;100517.75;5009031;28;20048;-86
2022/09/14 08:30:55;;;;;;;9.68;4.95;;;;;;;15.21;89.43;100532.91;4989598;28;20038;-85
2022/09/14 08:33:20;;;;;;;8.95;5.35;;;;;;;15.27;89.23;100525.94;4994447;28;20094;-86
2022/09/14 08:35:46;;;;;;;7.15;4.53;;;;;;;15.27;88.59;100528.69;4991696;28;20441;-85
2022/09/14 08:38:11;;;;;;;9.13;5.50;;;;;;;15.23;89.40;100533.59;5011482;28;20534;-85
2022/09/14 08:40:44;;;;;;;8.25;4.35;;;;;;;15.20;88.60;100536.66;5005727;28;20046;-85
2022/09/14 08:43:12;;;;;;;7.95;4.60;;;;;;;15.22;89.56;100525.53;5002953;28;20046;-86
2022/09/14 08:45:42;;;;;;;9.30;4.70;;;;;;;15.19;89.86;100531.31;4990727;28;20128;-85
2022/09/14 08:48:30;;;;;;;11.38;5.18;;;;;;;15.12;90.31;100517.34;4995129;28;20038;-86
2022/09/14 08:50:56;;;;;;;8.70;4.57;;;;;;;15.14;89.01;100526.28;4999532;28;20042;-85
2022/09/14 08:53:24;;;;;;;8.90;4.90;;;;;;;15.17;89.59;100536.09;5004258;28;20042;-85
2022/09/14 08:56:18;;;;;;;9.27;5.18;;;;;;;15.24;88.97;100537.22;5005128;28;20037;-86
2022/09/14 08:58:51;;;;;;;6.90;4.22;;;;;;;15.23;89.26;100536.34;4999581;28;20538;-86
2022/09/14 09:01:41;;;;;;;8.50;4.50;;;;;;;15.27;88.31;100542.41;5001942;28;20086;-85
2022/09/14 09:04:25;;;;;;;9.38;4.47;;;;;;;15.34;88.88;100540.81;5000272;28;20061;-86
2022/09/14 09:07:08;;;;;;;6.28;4.72;;;;;;;15.28;89.04;100536.75;5004150;28;20039;-86
2022/09/14 09:09:45;;;;;;;9.70;4.40;;;;;;;15.33;89.08;100536.31;5000660;28;20053;-86
2022/09/14 09:12:17;;;;;;;10.68;4.88;;;;;;;15.35;89.28;100530.69;5002904;28;20057;-86
2022/09/14 09:14:50;;;;;;;12.80;5.25;;;;;;;15.40;89.08;100531.97;5001896;28;20165;-85
2022/09/14 09:17:21;;;;;;;9.15;4.50;;;;;;;15.39;89.06;100534.84;4998015;28;20091;-85
2022/09/14 09:20:15;;;;;;;7.82;4.45;;;;;;;15.39;88.27;100532.09;4995468;28;20042;-86
2022/09/14 09:22:46;;;;;;;9.98;4.38;;;;;;;15.30;87.99;100531.16;5010100;28;20044;-85
2022/09/14 09:25:23;;;;;;;10.45;4.43;;;;;;;15.36;88.57;100529.69;4994073;28;20057;-85
2022/09/14 09:27:50;;;;;;;7.40;4.80;;;;;;;15.24;89.43;100524.38;4989348;28;20042;-85
2022/09/14 09:30:16;;;;;;;6.65;4.10;;;;;;;15.35;88.44;100536.19;4990695;28;20046;-85
2022/09/14 09:32:42;;;;;;;9.27;4.50;;;;;;;15.31;88.58;100533.72;5021292;28;20034;-85
2022/09/14 09:35:21;;;;;;;7.18;4.30;;;;;;;15.28;89.21;100527.69;4990121;28;20375;-86
2022/09/14 09:37:55;;;;;;;9.38;4.65;;;;;;;15.23;88.88;100519.03;5001007;28;20517;-85
2022/09/14 09:40:43;;;;;;;15.65;5.40;;;;;;;15.16;88.74;100520.66;4988642;28;20023;-86
2022/09/14 09:43:12;;;;;;;7.45;4.53;;;;;;;15.13;89.97;100520.94;4984420;28;20471;-85
2022/09/14 09:45:55;;;;;;;8.55;5.05;;;;;;;15.10;89.40;100530.31;4989272;28;20048;-86
2022/09/14 09:48:27;;;;;;;9.02;4.65;;;;;;;15.08;89.84;100524.13;5003416;28;20042;-85
2022/09/14 09:51:24;;;;;;;11.10;4.38;;;;;;;15.14;89.52;100525.41;4989374;28;20085;-86
2022/09/14 09:53:52;;;;;;;11.57;4.78;;;;;;;15.15;90.73;100514.28;5019231;28;20104;-86
2022/09/14 09:56:57;;;;;;;9.15;4.85;;;;;;;15.28;89.60;100531.28;5005100;28;20034;-86
2022/09/14 09:59:49;;;;;;;9.80;4.38;;;;;;;15.25;89.20;100525.25;4974064;28;20068;-86
2022/09/14 10:02:22;;;;;;;11.40;4.25;;;;;;;15.31;88.96;100532.88;4987486;28;20160;-86
2022/09/14 10:05:32;;;;;;;10.70;5.35;;;;;;;15.31;88.04;100527.38;4974670;28;20046;-85
2022/09/14 10:08:00;;;;;;;9.23;4.80;;;;;;;15.33;89.72;100528.09;4967507;28;20038;-85
2022/09/14 10:10:46;;;;;;;12.45;4.60;;;;;;;15.43;89.09;100528.91;4985147;28;20068;-85
2022/09/14 10:13:29;;;;;;;8.32;4.97;;;;;;;15.62;89.91;100532.59;5010511;28;20057;-86
2022/09/14 10:16:14;;;;;;;8.48;4.95;;;;;;;15.77;88.86;100525.63;4991650;28;20037;-85
2022/09/14 10:18:46;;;;;;;11.45;5.43;;;;;;;15.93;89.44;100528.56;5008223;28;20034;-85
2022/09/14 10:21:14;;;;;;;8.57;5.20;;;;;;;16.05;88.91;100523.75;4990509;28;20061;-86
2022/09/14 10:23:40;;;;;;;15.15;5.50;;;;;;;16.11;87.96;100520.38;5005361;28;20064;-85
2022/09/14 10:26:11;;;;;;;10.00;5.28;;;;;;;16.19;87.17;100520.47;5007291;28;20073;-85
2022/09/14 10:28:39;;;;;;;6.53;5.57;;;;;;;16.32;87.79;100520.94;4990026;28;20038;-85
2022/09/14 10:31:11;;;;;;;8.35;5.47;;;;;;;16.45;86.82;100526.03;4990710;28;20033;-85
2022/09/14 10:33:36;;;;;;;12.23;5.55;;;;;;;16.54;86.26;100524.22;5023172;28;20048;-85
2022/09/14 10:36:13;;;;;;;11.35;5.45;;;;;;;16.56;87.36;100514.81;5008322;28;20034;-86
2022/09/14 10:39:02;;;;;;;10.27;6.32;;;;;;;16.56;85.66;100511.22;4997243;28;20656;-85
2022/09/14 10:41:35;;;;;;;10.63;5.40;;;;;;;16.53;85.11;100519.75;4975179;28;20049;-85
2022/09/14 10:44:18;;;;;;;11.65;6.38;;;;;;;16.46;85.30;100516.78;4989995;28;20216;-85
2022/09/14 10:47:02;;;;;;;10.05;5.70;;;;;;;16.37;85.04;100516.84;5007472;28;20121;-86
2022/09/14 10:49:39;;;;;;;6.38;5.68;;;;;;;16.25;85.05;100511.59;4990015;28;20042;-85
2022/09/14 10:52:21;;;;;;;10.07;5.70;;;;;;;16.15;84.85;100513.56;4994210;28;20037;-86
2022/09/14 10:55:01;;;;;;;11.20;5.90;;;;;;;16.08;85.18;100513.28;5005500;28;20055;-85
2022/09/14 10:57:41;;;;;;;12.05;6.28;;;;;;;15.98;86.32;100508.91;5007254;28;20042;-85
2022/09/14 11:00:14;;;;;;;9.88;5.88;;;;;;;15.93;85.38;100511.25;5006670;28;20495;-85
2022/09/14 11:03:06;;;;;;;10.43;5.78;;;;;;;15.92;85.78;100504.88;5007067;28;20038;-86
2022/09/14 11:05:55;;;;;;;6.65;5.22;;;;;;;15.88;85.52;100508.97;4990654;28;20053;-86
2022/09/14 11:08:34;;;;;;;8.73;5.15;;;;;;;15.86;85.15;100511.00;4973989;28;20498;-86
2022/09/14 11:11:29;;;;;;;9.13;4.68;;;;;;;15.79;84.93;100507.13;5007080;28;20521;-86
2022/09/14 11:14:07;;;;;;;5.82;4.22;;;;;;;15.82;84.94;100518.66;5024108;28;20045;-86
2022/09/14 11:16:56;;;;;;;6.65;4.57;;;;;;;15.76;85.43;100511.06;4993906;28;20033;-86
2022/09/14 11:19:34;;;;;;;7.72;5.00;;;;;;;15.73;85.57;100513.25;5006513;28;20034;-86
2022/09/14 11:21:59;;;;;;;10.88;4.60;;;;;;;15.71;84.99;100516.13;4976213;28;20041;-86
2022/09/14 11:24:48;;;;;;;10.23;5.13;;;;;;;15.67;85.38;100506.50;5007351;28;20034;-86
2022/09/14 11:27:30;;;;;;;6.78;4.72;;;;;;;15.71;86.28;100505.16;5001899;28;20038;-86
2022/09/14 11:30:10;;;;;;;9.60;5.57;;;;;;;15.74;86.64;100504.00;4989887;28;20042;-86
2022/09/14 11:32:45;;;;;;;7.75;4.82;;;;;;;15.70;84.47;100497.06;5006119;28;20042;-86
2022/09/14 11:35:16;;;;;;;6.32;4.85;;;;;;;15.71;86.71;100499.66;4990656;28;20045;-86
2022/09/14 11:37:58;;;;;;;7.88;4.97;;;;;;;15.81;86.66;100499.63;4993421;28;20037;-86
2022/09/14 11:40:31;;;;;;;11.48;5.22;;;;;;;15.76;85.41;100497.34;4992874;28;20103;-85
2022/09/14 11:43:13;;;;;;;12.25;5.32;;;;;;;15.75;85.18;100489.25;5004037;28;20096;-86
2022/09/14 11:45:51;;;;;;;8.10;5.23;;;;;;;15.70;85.68;100495.19;5011575;28;20037;-86